Time;durP1;ratioP1;P1;durP2;ratioP2;P2;SDS_P1;SDS_P2;PMS_P1;PMS_P2;Temp;Humidity;BMP_temperature;BMP_pressure;BME280_temperature;BME280_humidity;BME280_pressure;Samples;Min_cycle;Max_cycle;Signal;HPM_P1;HPM_P2
2023/04/12 00:01:03;;;;;;;7.57;2.22;;;5.00;99.90;;;;;;7546952;19;20770;-76
2023/04/12 00:03:36;;;;;;;8.20;2.83;;;5.00;99.90;;;;;;7564220;19;20015;-77
2023/04/12 00:06:09;;;;;;;5.50;2.70;;;5.00;99.90;;;;;;7573580;19;20015;-76
2023/04/12 00:08:45;;;;;;;7.53;2.60;;;4.90;99.90;;;;;;7574929;19;20573;-76
2023/04/12 00:11:18;;;;;;;8.18;2.40;;;5.00;99.90;;;;;;7577330;19;20372;-76
2023/04/12 00:13:50;;;;;;;5.30;2.38;;;5.00;99.90;;;;;;7569933;19;20073;-77
2023/04/12 00:16:23;;;;;;;3.72;2.50;;;5.10;99.90;;;;;;7578389;19;20051;-76
2023/04/12 00:18:56;;;;;;;5.78;2.38;;;5.10;99.90;;;;;;7573992;19;20106;-77
2023/04/12 00:21:29;;;;;;;4.80;2.13;;;5.10;99.90;;;;;;7582365;19;20014;-76
2023/04/12 00:24:01;;;;;;;4.67;2.07;;;5.00;99.90;;;;;;7572966;19;20037;-76
2023/04/12 00:26:33;;;;;;;4.72;1.98;;;5.00;99.90;;;;;;7577477;19;21177;-76
2023/04/12 00:29:05;;;;;;;3.97;2.33;;;5.00;99.90;;;;;;7560887;19;20018;-76
2023/04/12 00:31:38;;;;;;;8.50;2.60;;;5.10;99.90;;;;;;7559813;19;20039;-77
2023/04/12 00:34:11;;;;;;;5.67;2.07;;;5.10;99.90;;;;;;7565075;19;20030;-76
2023/04/12 00:36:43;;;;;;;7.20;1.98;;;5.10;99.90;;;;;;7579973;19;20007;-76
2023/04/12 00:39:15;;;;;;;4.32;2.22;;;5.10;99.90;;;;;;7567751;19;20517;-77
2023/04/12 00:41:48;;;;;;;3.97;1.80;;;5.10;99.90;;;;;;7573451;19;20029;-76
2023/04/12 00:44:20;;;;;;;4.50;2.38;;;5.10;99.90;;;;;;7577237;19;20318;-76
2023/04/12 00:46:53;;;;;;;12.35;4.05;;;5.10;99.90;;;;;;7566559;19;20034;-76
2023/04/12 00:49:29;;;;;;;5.55;2.63;;;5.10;99.90;;;;;;7558095;19;20022;-76
2023/04/12 00:52:08;;;;;;;9.05;2.30;;;5.10;99.90;;;;;;7568520;19;20034;-76
2023/04/12 00:54:42;;;;;;;5.72;2.63;;;5.10;99.90;;;;;;7594350;19;20018;-76
2023/04/12 00:57:15;;;;;;;4.43;2.00;;;5.10;99.90;;;;;;7560671;19;20026;-77
2023/04/12 00:59:47;;;;;;;6.53;2.03;;;5.20;99.90;;;;;;7557320;19;20033;-76
2023/04/12 01:02:19;;;;;;;4.50;2.15;;;5.30;99.90;;;;;;7557536;19;20026;-76
2023/04/12 01:04:53;;;;;;;8.05;2.70;;;5.30;99.90;;;;;;7571054;19;20025;-76
2023/04/12 01:08:06;;;;;;;2.95;2.30;;;5.30;99.90;;;;;;7563043;19;20022;-76
2023/04/12 01:10:46;;;;;;;4.25;1.85;;;5.30;99.90;;;;;;7577472;19;20011;-76
2023/04/12 01:13:34;;;;;;;5.22;2.00;;;5.30;99.90;;;;;;7563200;19;20030;-76
2023/04/12 01:16:29;;;;;;;5.47;2.33;;;5.40;99.90;;;;;;7565786;19;20019;-76
2023/04/12 01:19:12;;;;;;;2.78;2.03;;;5.30;99.90;;;;;;7559742;19;20231;-76
2023/04/12 01:22:01;;;;;;;6.53;2.22;;;5.40;99.90;;;;;;7545890;19;20025;-76
2023/04/12 01:24:48;;;;;;;4.47;2.30;;;5.40;99.90;;;;;;7570351;19;20371;-76
2023/04/12 01:27:47;;;;;;;4.43;2.30;;;5.40;99.90;;;;;;7547951;19;20090;-76
2023/04/12 01:30:20;;;;;;;4.15;2.35;;;5.50;99.90;;;;;;7591450;19;20399;-76
2023/04/12 01:32:54;;;;;;;2.28;1.70;;;5.50;99.90;;;;;;7593155;19;20494;-77
2023/04/12 01:35:30;;;;;;;6.93;2.63;;;5.50;99.90;;;;;;7577739;19;20937;-76
2023/04/12 01:38:06;;;;;;;3.60;2.15;;;5.50;99.90;;;;;;7582645;19;20047;-76
2023/04/12 01:40:41;;;;;;;5.30;2.20;;;5.60;99.90;;;;;;7605047;19;20028;-76
2023/04/12 01:43:14;;;;;;;5.72;2.53;;;5.60;99.90;;;;;;7588338;19;20022;-76
2023/04/12 01:45:47;;;;;;;;;;;5.60;99.90;;;;;;7587198;19;20017;-77
2023/04/12 01:48:19;;;;;;;3.70;2.15;;;5.60;99.90;;;;;;7565090;19;19979;-76
2023/04/12 01:51:09;;;;;;;6.10;2.13;;;5.70;99.90;;;;;;7587861;19;20437;-76
2023/04/12 01:53:47;;;;;;;4.53;2.10;;;5.60;99.90;;;;;;7579646;19;20948;-76
2023/04/12 01:56:22;;;;;;;3.72;2.33;;;5.60;99.90;;;;;;7579438;19;21065;-76
2023/04/12 01:58:56;;;;;;;3.47;2.00;;;5.70;99.90;;;;;;7568841;19;20037;-76
2023/04/12 02:01:32;;;;;;;2.85;1.77;;;5.70;99.90;;;;;;7583601;19;20014;-76
2023/04/12 02:04:13;;;;;;;6.05;2.15;;;5.70;99.90;;;;;;7586176;19;20029;-76
2023/04/12 02:06:46;;;;;;;10.52;2.40;;;5.70;99.90;;;;;;7553783;19;20149;-76
2023/04/12 02:09:21;;;;;;;4.23;2.40;;;5.70;99.90;;;;;;7550155;19;20014;-77
2023/04/12 02:11:53;;;;;;;5.05;2.55;;;5.60;99.90;;;;;;7561844;19;20287;-76
2023/04/12 02:14:25;;;;;;;4.63;2.10;;;5.70;99.90;;;;;;7539405;19;20029;-76
2023/04/12 02:17:00;;;;;;;4.18;2.30;;;5.70;99.90;;;;;;7584428;19;20018;-76
2023/04/12 02:19:33;;;;;;;3.83;2.38;;;5.70;99.90;;;;;;7554875;19;20527;-76
2023/04/12 02:22:07;;;;;;;4.63;1.88;;;5.70;99.90;;;;;;7552284;19;20022;-76
2023/04/12 02:24:39;;;;;;;8.60;2.10;;;5.60;99.90;;;;;;7556182;19;20018;-76
2023/04/12 02:27:11;;;;;;;4.25;1.80;;;5.60;99.90;;;;;;7536530;19;20014;-76
2023/04/12 02:29:44;;;;;;;4.88;2.35;;;5.60;99.90;;;;;;7539010;19;20692;-76
2023/04/12 02:32:17;;;;;;;5.07;2.25;;;5.60;99.90;;;;;;7537172;19;20254;-76
2023/04/12 02:34:50;;;;;;;4.28;2.20;;;5.60;99.90;;;;;;7551439;19;20773;-76
2023/04/12 02:37:26;;;;;;;7.30;2.45;;;5.60;99.90;;;;;;7588007;19;20043;-76
2023/04/12 02:40:01;;;;;;;10.18;2.88;;;5.50;99.90;;;;;;7577809;19;20014;-76
2023/04/12 02:42:35;;;;;;;6.38;2.50;;;5.50;99.90;;;;;;7547212;19;20015;-76
2023/04/12 02:45:08;;;;;;;3.43;2.30;;;5.60;99.90;;;;;;7551809;19;20022;-75
2023/04/12 02:47:41;;;;;;;6.70;2.35;;;5.50;99.90;;;;;;7557659;19;20842;-76
2023/04/12 02:50:14;;;;;;;7.30;2.75;;;5.50;99.90;;;;;;7565548;19;20010;-78
2023/04/12 02:52:54;;;;;;;4.38;2.20;;;5.40;99.90;;;;;;7596064;19;20465;-75
2023/04/12 02:55:26;;;;;;;7.25;2.20;;;5.40;99.90;;;;;;7564574;19;20025;-75
2023/04/12 02:57:59;;;;;;;4.70;2.20;;;5.40;99.90;;;;;;7575094;19;20014;-75
2023/04/12 03:00:32;;;;;;;5.57;2.50;;;5.40;99.90;;;;;;7546766;19;20771;-76
2023/04/12 03:03:07;;;;;;;4.15;2.40;;;5.50;99.90;;;;;;7591466;19;20078;-76
2023/04/12 03:05:40;;;;;;;5.47;2.88;;;5.50;99.90;;;;;;7576349;19;20018;-75
2023/04/12 03:08:12;;;;;;;5.00;2.35;;;5.40;99.90;;;;;;7578666;19;20010;-76
2023/04/12 03:10:55;;;;;;;4.70;2.58;;;5.40;99.90;;;;;;7579750;19;20021;-75
2023/04/12 03:13:29;;;;;;;8.77;2.58;;;5.40;99.90;;;;;;7580411;19;20022;-75
2023/04/12 03:16:24;;;;;;;3.95;2.50;;;5.40;99.90;;;;;;7575642;19;20259;-75
2023/04/12 03:19:05;;;;;;;8.90;2.70;;;5.40;99.90;;;;;;7565073;19;20024;-75
2023/04/12 03:21:38;;;;;;;7.75;2.80;;;5.40;99.90;;;;;;7586593;19;20813;-75
2023/04/12 03:24:12;;;;;;;5.57;2.30;;;5.40;99.90;;;;;;7571909;19;20034;-75
2023/04/12 03:26:44;;;;;;;3.55;2.28;;;5.30;99.90;;;;;;7557867;19;20129;-75
2023/04/12 03:29:22;;;;;;;8.80;3.38;;;5.30;99.90;;;;;;7572307;19;20047;-75
2023/04/12 03:31:58;;;;;;;5.55;2.65;;;5.30;99.90;;;;;;7578656;19;20015;-75
2023/04/12 03:34:32;;;;;;;6.13;2.47;;;5.30;99.90;;;;;;7586497;19;20015;-75
2023/04/12 03:37:12;;;;;;;5.07;2.83;;;5.30;99.90;;;;;;7599602;19;20394;-75
2023/04/12 03:39:46;;;;;;;7.97;2.65;;;5.30;99.90;;;;;;7567024;19;20017;-74
2023/04/12 03:42:26;;;;;;;9.57;2.72;;;5.30;99.90;;;;;;7542134;19;21032;-74
2023/04/12 03:45:16;;;;;;;7.00;2.85;;;5.30;99.90;;;;;;7578957;19;20031;-73
2023/04/12 03:47:54;;;;;;;10.15;2.95;;;5.30;99.90;;;;;;7577462;19;20035;-72
2023/04/12 03:50:28;;;;;;;15.05;6.72;;;5.40;99.90;;;;;;7578214;19;20006;-74
2023/04/12 03:53:01;;;;;;;6.93;2.97;;;5.30;99.90;;;;;;7580346;19;20124;-72
2023/04/12 03:55:36;;;;;;;11.73;3.28;;;5.40;99.90;;;;;;7582055;19;20086;-74
2023/04/12 03:58:08;;;;;;;7.63;2.80;;;5.40;99.90;;;;;;7564876;19;20023;-72
2023/04/12 04:00:47;;;;;;;8.02;3.58;;;5.40;99.90;;;;;;7574922;19;20018;-73
2023/04/12 04:03:25;;;;;;;9.38;3.17;;;5.40;99.90;;;;;;7575953;19;20014;-73
2023/04/12 04:06:10;;;;;;;5.07;2.92;;;5.30;99.90;;;;;;7593482;19;20022;-74
2023/04/12 04:08:43;;;;;;;15.93;3.72;;;5.40;99.90;;;;;;7598763;19;20026;-74
2023/04/12 04:11:17;;;;;;;5.90;2.47;;;5.30;99.90;;;;;;7591376;19;20010;-73
2023/04/12 04:13:54;;;;;;;11.40;3.53;;;5.30;99.90;;;;;;7577853;19;20018;-73
2023/04/12 04:16:28;;;;;;;6.28;3.15;;;5.30;99.90;;;;;;7574133;19;20015;-73
2023/04/12 04:19:02;;;;;;;7.55;3.53;;;5.30;99.90;;;;;;7574464;19;20862;-73
2023/04/12 04:21:34;;;;;;;9.77;3.92;;;5.30;99.90;;;;;;7572132;19;20021;-74
2023/04/12 04:24:10;;;;;;;7.85;3.28;;;5.30;99.90;;;;;;7569806;19;20018;-74
2023/04/12 04:26:45;;;;;;;9.63;3.38;;;5.40;99.90;;;;;;7570998;19;20010;-75
2023/04/12 04:29:28;;;;;;;12.95;3.03;;;5.40;99.90;;;;;;7569102;19;20018;-73
2023/04/12 04:32:02;;;;;;;11.10;3.20;;;5.40;99.90;;;;;;7565057;19;20344;-73
2023/04/12 04:34:35;;;;;;;5.40;3.20;;;5.40;99.90;;;;;;7572456;19;24565;-73
2023/04/12 04:37:14;;;;;;;8.27;3.20;;;5.30;99.90;;;;;;7574259;19;20018;-74
2023/04/12 04:39:49;;;;;;;9.82;3.00;;;5.30;99.90;;;;;;7563315;19;21502;-73
2023/04/12 04:42:23;;;;;;;10.73;3.10;;;5.40;99.90;;;;;;7546085;19;20033;-73
2023/04/12 04:45:11;;;;;;;7.22;2.90;;;5.40;99.90;;;;;;7568375;19;20275;-74
2023/04/12 04:47:46;;;;;;;6.72;3.05;;;5.40;99.90;;;;;;7565158;19;20040;-74
2023/04/12 04:50:20;;;;;;;10.02;3.40;;;5.40;99.90;;;;;;7573960;19;20061;-74
2023/04/12 04:52:54;;;;;;;10.18;3.00;;;5.40;99.90;;;;;;7585894;19;20018;-73
2023/04/12 04:55:28;;;;;;;10.15;3.42;;;5.40;99.90;;;;;;7560533;19;20014;-72
2023/04/12 04:58:01;;;;;;;7.55;3.35;;;5.40;99.90;;;;;;7549909;19;20310;-71
2023/04/12 05:00:35;;;;;;;6.15;3.25;;;5.40;99.90;;;;;;7576725;19;20026;-73
2023/04/12 05:03:07;;;;;;;8.90;3.30;;;5.40;99.90;;;;;;7544486;19;20022;-73
2023/04/12 05:05:40;;;;;;;7.85;3.10;;;5.40;99.90;;;;;;7565373;19;20101;-74
2023/04/12 05:08:14;;;;;;;11.05;3.25;;;5.40;99.90;;;;;;7575551;19;20817;-74
2023/04/12 05:10:51;;;;;;;15.27;2.97;;;5.40;99.90;;;;;;7556647;19;20029;-72
2023/04/12 05:13:26;;;;;;;17.90;3.67;;;5.40;99.90;;;;;;7557504;19;21818;-74
2023/04/12 05:15:58;;;;;;;10.13;3.60;;;5.40;99.90;;;;;;7579292;19;20303;-71
2023/04/12 05:18:30;;;;;;;12.20;4.10;;;5.40;99.90;;;;;;7577474;19;20018;-72
2023/04/12 05:21:04;;;;;;;16.35;3.92;;;5.40;99.90;;;;;;7588343;19;20018;-72
2023/04/12 05:23:42;;;;;;;8.57;3.53;;;5.40;99.90;;;;;;7588744;19;20030;-72
2023/04/12 05:26:16;;;;;;;10.85;3.78;;;5.50;99.90;;;;;;7578398;19;20467;-73
2023/04/12 05:28:52;;;;;;;6.40;3.60;;;5.50;99.90;;;;;;7573435;19;20025;-72
2023/04/12 05:31:26;;;;;;;9.20;4.30;;;5.50;99.90;;;;;;7586234;19;20366;-72
2023/04/12 05:33:59;;;;;;;14.70;3.65;;;5.40;99.90;;;;;;7558155;19;20026;-73
2023/04/12 05:36:36;;;;;;;11.27;3.95;;;5.40;99.90;;;;;;7570858;19;20047;-72
2023/04/12 05:39:09;;;;;;;10.57;4.55;;;5.40;99.90;;;;;;7563822;19;20105;-71
2023/04/12 05:41:41;;;;;;;12.83;4.20;;;5.40;99.90;;;;;;7587592;19;20966;-73
2023/04/12 05:44:14;;;;;;;15.57;4.05;;;5.50;99.90;;;;;;7570744;19;20095;-74
2023/04/12 05:46:47;;;;;;;14.45;4.43;;;5.50;99.90;;;;;;7575087;19;20015;-75
2023/04/12 05:49:20;;;;;;;13.15;4.88;;;5.50;99.90;;;;;;7581700;19;20024;-76
2023/04/12 05:51:53;;;;;;;16.30;4.40;;;5.50;99.90;;;;;;7607637;19;21063;-72
2023/04/12 05:54:25;;;;;;;16.77;4.40;;;5.60;99.90;;;;;;7578945;19;20025;-72
2023/04/12 05:56:59;;;;;;;;;;;5.60;99.90;;;;;;7578900;19;20022;-72
2023/04/12 05:59:31;;;;;;;12.32;4.22;;;5.60;99.90;;;;;;7580265;19;19971;-73
2023/04/12 06:02:06;;;;;;;10.65;3.90;;;5.60;99.90;;;;;;7569718;19;25540;-74
2023/04/12 06:04:39;;;;;;;9.07;3.88;;;5.70;99.90;;;;;;7572427;19;20076;-74
2023/04/12 06:07:22;;;;;;;7.57;3.80;;;5.60;99.90;;;;;;7584670;19;20909;-72
2023/04/12 06:09:54;;;;;;;16.73;3.53;;;5.70;99.90;;;;;;7577954;19;20015;-73
2023/04/12 06:12:27;;;;;;;12.20;3.95;;;5.70;99.90;;;;;;7569864;19;20097;-73
2023/04/12 06:14:59;;;;;;;16.17;3.95;;;5.80;99.90;;;;;;7577008;19;20894;-73
2023/04/12 06:17:33;;;;;;;19.27;4.00;;;5.80;99.90;;;;;;7590153;19;20022;-75
2023/04/12 06:20:08;;;;;;;17.48;4.50;;;5.80;99.90;;;;;;7604699;19;20086;-74
2023/04/12 06:22:42;;;;;;;9.75;3.58;;;5.80;99.90;;;;;;7599768;19;20022;-73
2023/04/12 06:25:17;;;;;;;9.48;4.30;;;5.80;99.90;;;;;;7584123;19;20019;-72
2023/04/12 06:27:51;;;;;;;10.77;3.40;;;5.70;99.90;;;;;;7558339;19;20015;-72
2023/04/12 06:30:25;;;;;;;6.68;3.45;;;5.70;99.90;;;;;;7572670;19;20421;-73
2023/04/12 06:32:58;;;;;;;9.63;4.03;;;5.80;99.90;;;;;;7578671;19;20367;-72
2023/04/12 06:35:31;;;;;;;6.05;3.15;;;5.70;99.90;;;;;;7557587;19;20018;-74
2023/04/12 06:38:03;;;;;;;9.13;3.70;;;5.80;99.90;;;;;;7565201;19;20020;-73
2023/04/12 06:40:36;;;;;;;9.52;4.03;;;5.80;99.90;;;;;;7516484;19;21482;-74
2023/04/12 06:43:08;;;;;;;9.25;3.53;;;5.80;99.90;;;;;;7501087;19;20018;-72
2023/04/12 06:45:40;;;;;;;8.15;3.70;;;5.90;99.90;;;;;;7563093;19;20022;-74
2023/04/12 06:48:13;;;;;;;6.70;3.78;;;5.90;99.90;;;;;;7590500;19;20673;-72
2023/04/12 06:50:45;;;;;;;11.32;3.80;;;6.00;99.90;;;;;;7571290;19;20086;-72
2023/04/12 06:53:18;;;;;;;9.82;3.80;;;6.00;99.90;;;;;;7533440;19;20055;-73
2023/04/12 06:55:50;;;;;;;8.32;3.88;;;6.10;99.90;;;;;;7578640;19;20018;-72
2023/04/12 06:58:22;;;;;;;7.28;3.35;;;6.20;99.90;;;;;;7563685;19;20086;-71
2023/04/12 07:01:06;;;;;;;6.47;2.97;;;6.20;99.90;;;;;;7573701;19;20458;-74
2023/04/12 07:03:39;;;;;;;10.40;3.28;;;6.20;99.90;;;;;;7542088;19;20011;-72
2023/04/12 07:06:12;;;;;;;6.03;3.00;;;6.20;99.90;;;;;;7561068;19;20018;-73
2023/04/12 07:08:57;;;;;;;9.10;3.42;;;6.20;99.90;;;;;;7530633;19;20613;-72
2023/04/12 07:11:31;;;;;;;7.05;3.45;;;6.30;99.90;;;;;;7549836;19;20021;-73
2023/04/12 07:14:03;;;;;;;9.68;3.45;;;6.30;99.90;;;;;;7574495;19;20022;-73
2023/04/12 07:16:35;;;;;;;9.23;3.72;;;6.40;99.90;;;;;;7573893;19;20320;-74
2023/04/12 07:19:08;;;;;;;8.63;3.53;;;6.50;99.90;;;;;;7594435;19;20478;-73
2023/04/12 07:21:40;;;;;;;7.03;3.25;;;6.50;99.90;;;;;;7559225;19;20023;-72
2023/04/12 07:24:12;;;;;;;6.88;3.10;;;6.50;99.90;;;;;;7558553;19;21636;-73
2023/04/12 07:26:45;;;;;;;7.87;3.43;;;6.50;99.90;;;;;;7548556;19;20022;-73
2023/04/12 07:29:18;;;;;;;6.38;3.40;;;6.50;99.90;;;;;;7554348;19;20026;-73
2023/04/12 07:31:50;;;;;;;6.50;3.55;;;6.50;99.90;;;;;;7574274;19;20971;-74
2023/04/12 07:34:22;;;;;;;10.85;3.55;;;6.60;99.90;;;;;;7572953;19;20022;-73
2023/04/12 07:36:55;;;;;;;8.90;3.57;;;6.60;99.90;;;;;;7555939;19;20727;-75
2023/04/12 07:39:30;;;;;;;7.10;3.30;;;6.80;99.90;;;;;;7545297;19;20018;-75
2023/04/12 07:42:03;;;;;;;27.25;4.75;;;6.80;99.90;;;;;;7562731;19;20018;-75
2023/04/12 07:44:36;;;;;;;8.13;3.60;;;6.90;99.90;;;;;;7558660;19;20051;-75
2023/04/12 07:47:09;;;;;;;7.43;3.60;;;6.90;99.90;;;;;;7563899;19;20018;-75
2023/04/12 07:49:42;;;;;;;8.98;3.42;;;7.00;99.90;;;;;;7575287;19;20082;-76
2023/04/12 07:52:14;;;;;;;6.35;3.35;;;7.00;99.90;;;;;;7582836;19;20837;-76
2023/04/12 07:54:46;;;;;;;6.72;3.13;;;7.00;99.90;;;;;;7573473;19;20510;-76
2023/04/12 07:57:19;;;;;;;5.95;2.92;;;7.10;99.90;;;;;;7539447;19;20572;-75
2023/04/12 07:59:51;;;;;;;10.60;3.10;;;7.20;99.90;;;;;;7595798;19;20014;-76
2023/04/12 08:02:24;;;;;;;9.40;3.90;;;7.20;99.90;;;;;;7575439;19;20014;-75
2023/04/12 08:04:57;;;;;;;9.35;3.85;;;7.30;99.90;;;;;;7576739;19;20113;-75
2023/04/12 08:07:29;;;;;;;11.35;3.65;;;7.30;99.90;;;;;;7568553;19;20019;-76
2023/04/12 08:10:01;;;;;;;5.20;3.28;;;7.50;99.90;;;;;;7558344;19;20089;-77
2023/04/12 08:12:34;;;;;;;8.73;4.40;;;7.50;99.90;;;;;;7564366;19;20018;-76
2023/04/12 08:15:07;;;;;;;6.63;3.65;;;7.50;99.90;;;;;;7580451;19;20057;-76
2023/04/12 08:17:41;;;;;;;7.65;3.70;;;7.50;99.90;;;;;;7598597;19;20018;-76
2023/04/12 08:20:14;;;;;;;8.32;3.85;;;7.50;99.90;;;;;;7574791;19;20014;-76
2023/04/12 08:22:48;;;;;;;8.30;3.95;;;7.50;99.90;;;;;;7550145;19;20047;-76
2023/04/12 08:25:21;;;;;;;6.93;3.42;;;7.50;99.90;;;;;;7560008;19;21412;-76
2023/04/12 08:27:53;;;;;;;12.52;3.72;;;7.50;99.90;;;;;;7527283;19;20097;-75
2023/04/12 08:30:25;;;;;;;7.50;4.05;;;7.60;99.90;;;;;;7547381;19;20574;-76
2023/04/12 08:32:58;;;;;;;7.10;4.10;;;7.70;99.90;;;;;;7574933;19;20022;-76
2023/04/12 08:35:31;;;;;;;5.97;3.78;;;7.70;99.90;;;;;;7550814;19;20529;-76
2023/04/12 08:38:06;;;;;;;5.75;3.55;;;7.70;99.90;;;;;;7574307;19;20022;-74
2023/04/12 08:40:41;;;;;;;9.27;3.60;;;7.70;99.90;;;;;;7549307;19;20014;-73
2023/04/12 08:43:16;;;;;;;8.90;3.38;;;7.80;99.90;;;;;;7524391;19;20018;-75
2023/04/12 08:45:49;;;;;;;11.00;3.58;;;7.80;99.90;;;;;;7540848;19;20772;-74
2023/04/12 08:48:21;;;;;;;10.38;3.80;;;7.80;99.90;;;;;;7553301;19;20019;-74
2023/04/12 08:50:56;;;;;;;6.50;3.17;;;7.90;99.90;;;;;;7577259;19;20548;-74
2023/04/12 08:53:28;;;;;;;7.13;3.55;;;8.00;99.90;;;;;;7569898;19;20078;-74
2023/04/12 08:56:01;;;;;;;9.90;4.07;;;8.00;99.90;;;;;;7590275;19;21427;-75
2023/04/12 08:58:35;;;;;;;7.45;4.40;;;8.00;99.90;;;;;;7531413;19;20066;-74
2023/04/12 09:01:12;;;;;;;8.82;4.28;;;8.10;99.90;;;;;;7555125;19;20019;-73
2023/04/12 09:03:45;;;;;;;7.18;4.05;;;8.10;99.90;;;;;;7562581;19;20022;-75
2023/04/12 09:06:18;;;;;;;10.63;4.70;;;8.10;99.90;;;;;;7575869;19;20070;-75
2023/04/12 09:08:52;;;;;;;11.32;3.80;;;8.10;99.90;;;;;;7566415;19;20010;-74
2023/04/12 09:11:27;;;;;;;7.50;3.60;;;8.20;99.90;;;;;;7565635;19;20014;-73
2023/04/12 09:14:00;;;;;;;12.02;3.85;;;8.30;99.90;;;;;;7548840;19;20047;-73
2023/04/12 09:16:37;;;;;;;10.63;4.10;;;8.30;99.90;;;;;;7582372;19;20873;-73
2023/04/12 09:19:10;;;;;;;8.60;4.18;;;8.40;99.90;;;;;;7575911;19;20014;-74
2023/04/12 09:21:54;;;;;;;6.80;3.38;;;8.50;99.90;;;;;;7548912;19;20907;-74
2023/04/12 09:24:26;;;;;;;;;;;8.70;99.90;;;;;;7573637;19;20022;-74
2023/04/12 09:27:05;;;;;;;9.02;3.80;;;8.70;99.90;;;;;;7574043;19;19963;-74
2023/04/12 09:29:38;;;;;;;6.70;3.15;;;8.70;99.90;;;;;;7529518;19;20507;-72
2023/04/12 09:32:10;;;;;;;5.90;3.60;;;8.80;99.90;;;;;;7575451;19;20014;-73
2023/04/12 09:34:57;;;;;;;4.85;3.47;;;8.80;99.90;;;;;;7569625;19;20039;-73
2023/04/12 09:37:30;;;;;;;7.90;3.35;;;8.90;99.90;;;;;;7550007;19;20557;-73
2023/04/12 09:40:09;;;;;;;4.30;2.95;;;9.00;99.90;;;;;;7567748;19;20014;-72
2023/04/12 09:42:53;;;;;;;5.95;3.17;;;9.20;99.90;;;;;;7565292;19;20014;-73
2023/04/12 09:45:26;;;;;;;4.28;3.20;;;9.30;99.90;;;;;;7549155;19;20010;-73
2023/04/12 09:47:59;;;;;;;6.63;3.47;;;9.40;99.90;;;;;;7554803;19;21848;-74
2023/04/12 09:50:32;;;;;;;6.53;3.92;;;9.50;99.90;;;;;;7575565;19;20011;-73
2023/04/12 09:53:16;;;;;;;10.00;4.00;;;9.50;99.90;;;;;;7581333;19;21530;-73
2023/04/12 09:55:50;;;;;;;7.18;3.80;;;9.70;99.90;;;;;;7585836;19;20450;-74
2023/04/12 09:58:24;;;;;;;6.72;4.03;;;9.80;99.90;;;;;;7580554;19;20018;-73
2023/04/12 10:00:59;;;;;;;5.85;2.80;;;9.80;99.90;;;;;;7595830;19;20022;-73
2023/04/12 10:03:32;;;;;;;5.63;2.90;;;9.90;99.90;;;;;;7592804;19;20023;-73
2023/04/12 10:06:05;;;;;;;5.07;2.50;;;10.00;99.90;;;;;;7593318;19;20677;-75
2023/04/12 10:08:38;;;;;;;5.50;2.63;;;10.20;99.90;;;;;;7596110;19;20112;-73
2023/04/12 10:11:11;;;;;;;2.45;1.92;;;10.40;99.90;;;;;;7549207;19;21182;-72
2023/04/12 10:13:44;;;;;;;3.85;2.30;;;10.60;99.90;;;;;;7573997;19;20014;-73
2023/04/12 10:16:17;;;;;;;3.40;2.20;;;10.80;99.90;;;;;;7591717;19;20456;-74
2023/04/12 10:18:51;;;;;;;2.42;1.85;;;10.90;99.90;;;;;;7572236;19;20029;-74
2023/04/12 10:21:23;;;;;;;4.38;2.17;;;11.00;99.90;;;;;;7537981;19;20491;-73
2023/04/12 10:23:57;;;;;;;3.20;2.30;;;11.00;99.90;;;;;;7550272;19;20014;-74
2023/04/12 10:26:29;;;;;;;3.05;1.92;;;11.20;99.90;;;;;;7530484;19;20747;-74
2023/04/12 10:29:24;;;;;;;4.57;1.85;;;11.20;99.90;;;;;;7554485;19;20038;-75
2023/04/12 10:32:17;;;;;;;5.15;2.00;;;11.20;99.90;;;;;;7513121;19;20018;-74
2023/04/12 10:34:52;;;;;;;3.85;2.20;;;11.30;99.90;;;;;;7562363;19;20118;-73
2023/04/12 10:38:00;;;;;;;2.35;1.70;;;11.50;99.90;;;;;;7544485;19;20891;-73
2023/04/12 10:40:33;;;;;;;3.45;1.95;;;11.60;99.90;;;;;;7503248;19;20018;-74
2023/04/12 10:43:21;;;;;;;6.00;1.95;;;11.70;99.90;;;;;;7526212;19;20014;-74
2023/04/12 10:45:53;;;;;;;5.47;2.03;;;11.70;99.90;;;;;;7535910;19;20399;-74
2023/04/12 10:48:30;;;;;;;1.98;1.70;;;11.70;99.90;;;;;;7531399;19;20030;-74
2023/04/12 10:51:35;;;;;;;2.20;1.70;;;11.80;99.90;;;;;;7523006;19;20014;-74
2023/04/12 10:54:16;;;;;;;2.13;1.83;;;11.90;99.90;;;;;;7514046;19;20047;-73
2023/04/12 10:56:49;;;;;;;2.03;1.80;;;12.00;99.90;;;;;;7475984;19;21768;-74
2023/04/12 10:59:55;;;;;;;3.25;1.60;;;12.10;99.90;;;;;;7519716;19;20014;-74
2023/04/12 11:02:28;;;;;;;2.08;1.77;;;12.30;99.90;;;;;;7536937;19;20011;-72
2023/04/12 11:05:08;;;;;;;4.18;1.80;;;12.30;99.90;;;;;;7570895;19;20018;-72
2023/04/12 11:08:05;;;;;;;3.78;1.80;;;12.40;99.90;;;;;;7591039;19;20011;-73
2023/04/12 11:10:47;;;;;;;3.17;2.13;;;12.60;99.90;;;;;;7569722;19;20047;-73
2023/04/12 11:13:25;;;;;;;3.10;1.90;;;12.70;99.90;;;;;;7573544;19;20048;-73
2023/04/12 11:16:01;;;;;;;5.00;2.20;;;12.80;99.90;;;;;;7587842;19;20023;-72
2023/04/12 11:18:34;;;;;;;1.80;1.30;;;12.90;99.90;;;;;;7582571;19;20801;-72
2023/04/12 11:21:08;;;;;;;3.60;2.25;;;12.80;99.90;;;;;;7584465;19;20029;-73
2023/04/12 11:23:42;;;;;;;3.13;1.85;;;13.00;99.90;;;;;;7583708;19;20031;-73
2023/04/12 11:26:19;;;;;;;;;;;13.00;99.90;;;;;;7573546;19;20022;-72
2023/04/12 11:28:52;;;;;;;2.13;1.50;;;12.90;99.90;;;;;;7586796;19;19962;-73
2023/04/12 11:31:24;;;;;;;3.40;1.70;;;13.00;99.90;;;;;;7593427;19;20023;-75
2023/04/12 11:33:58;;;;;;;2.40;1.75;;;13.00;99.90;;;;;;7585956;19;20295;-74
2023/04/12 11:36:31;;;;;;;2.00;1.20;;;13.00;99.90;;;;;;7592155;19;20869;-73
2023/04/12 11:39:03;;;;;;;4.13;1.70;;;13.00;99.90;;;;;;7592956;19;20629;-74
2023/04/12 11:41:36;;;;;;;2.45;1.25;;;13.10;99.90;;;;;;7588487;19;20014;-74
2023/04/12 11:44:08;;;;;;;5.00;1.67;;;13.30;99.90;;;;;;7589101;19;21070;-73
2023/04/12 11:46:41;;;;;;;4.07;1.30;;;13.40;99.90;;;;;;7587634;19;20029;-73
2023/04/12 11:49:18;;;;;;;3.35;1.35;;;13.50;99.90;;;;;;7595006;19;20018;-74
2023/04/12 11:52:06;;;;;;;2.05;1.40;;;13.60;99.90;;;;;;7585099;19;20028;-73
2023/04/12 11:54:46;;;;;;;3.28;1.45;;;13.70;99.90;;;;;;7594229;19;20044;-73
2023/04/12 11:57:18;;;;;;;2.33;1.42;;;13.80;99.60;;;;;;7588133;19;20030;-73
2023/04/12 11:59:51;;;;;;;2.30;1.30;;;13.80;99.70;;;;;;7595504;19;20018;-74
2023/04/12 12:02:24;;;;;;;3.03;1.10;;;13.80;99.30;;;;;;7589437;19;20049;-73
2023/04/12 12:05:05;;;;;;;3.58;1.17;;;13.70;97.90;;;;;;7583931;19;20279;-75
2023/04/12 12:07:38;;;;;;;1.63;1.30;;;13.60;99.90;;;;;;7591327;19;20015;-73
2023/04/12 12:10:10;;;;;;;3.75;1.33;;;13.60;99.20;;;;;;7592020;19;21633;-73
2023/04/12 12:13:04;;;;;;;2.58;1.63;;;13.60;99.90;;;;;;7585636;19;20023;-74
2023/04/12 12:15:43;;;;;;;3.00;1.40;;;13.70;99.90;;;;;;7587210;19;20054;-73
2023/04/12 12:18:16;;;;;;;2.70;1.50;;;13.70;99.20;;;;;;7591412;19;20473;-74
2023/04/12 12:20:50;;;;;;;3.22;1.98;;;13.60;98.00;;;;;;7586753;19;20033;-73
2023/04/12 12:23:30;;;;;;;2.45;1.50;;;13.60;98.60;;;;;;7587617;19;20653;-74
2023/04/12 12:26:05;;;;;;;4.03;1.80;;;13.60;99.40;;;;;;7583061;19;20565;-73
2023/04/12 12:28:56;;;;;;;2.85;1.90;;;13.60;99.30;;;;;;7587041;19;20386;-74
2023/04/12 12:31:28;;;;;;;6.15;1.92;;;13.40;99.80;;;;;;7581880;19;20342;-74
2023/04/12 12:34:00;;;;;;;3.25;1.67;;;13.40;99.90;;;;;;7601133;19;20014;-73
2023/04/12 12:36:37;;;;;;;2.97;1.70;;;13.40;99.90;;;;;;7596256;19;20018;-74
2023/04/12 12:39:11;;;;;;;2.45;1.45;;;13.50;99.90;;;;;;7594387;19;20031;-74
2023/04/12 12:41:53;;;;;;;2.25;1.60;;;13.50;99.90;;;;;;7581403;19;20078;-74
2023/04/12 12:44:25;;;;;;;7.03;1.60;;;13.60;99.90;;;;;;7591144;19;20983;-74
2023/04/12 12:47:01;;;;;;;1.98;1.27;;;13.70;99.90;;;;;;7587150;19;20484;-74
2023/04/12 12:49:44;;;;;;;2.53;1.70;;;13.90;98.70;;;;;;7598459;19;20017;-73
2023/04/12 12:52:17;;;;;;;2.55;1.45;;;13.90;99.10;;;;;;7605470;19;20019;-74
2023/04/12 12:54:49;;;;;;;2.83;1.80;;;14.20;98.90;;;;;;7584078;19;21149;-74
2023/04/12 12:57:21;;;;;;;4.13;1.55;;;14.40;98.40;;;;;;7598206;19;20019;-74
2023/04/12 12:59:54;;;;;;;4.30;1.73;;;14.70;97.70;;;;;;7591250;19;20014;-74
2023/04/12 13:02:26;;;;;;;3.70;1.55;;;14.70;94.80;;;;;;7590941;19;20022;-74
2023/04/12 13:05:00;;;;;;;4.03;1.60;;;14.80;95.90;;;;;;7586485;19;20018;-76
2023/04/12 13:07:33;;;;;;;4.10;1.60;;;14.80;95.70;;;;;;7587940;19;20014;-73
2023/04/12 13:10:06;;;;;;;4.90;1.87;;;14.80;95.50;;;;;;7583241;19;20406;-73
2023/04/12 13:12:38;;;;;;;2.58;1.52;;;15.00;95.40;;;;;;7587085;19;20015;-73
2023/04/12 13:15:12;;;;;;;1.92;1.60;;;14.90;95.40;;;;;;7588886;19;20014;-74
2023/04/12 13:17:54;;;;;;;2.92;1.83;;;14.90;95.00;;;;;;7586725;19;20034;-74
2023/04/12 13:20:27;;;;;;;3.80;1.50;;;14.80;95.00;;;;;;7593827;19;20026;-74
2023/04/12 13:22:59;;;;;;;3.33;1.70;;;14.60;95.10;;;;;;7582103;19;20362;-73
2023/04/12 13:25:31;;;;;;;4.53;2.15;;;14.60;94.40;;;;;;7594996;19;20047;-74
2023/04/12 13:28:04;;;;;;;4.72;1.73;;;14.50;95.00;;;;;;7588547;19;20018;-73
2023/04/12 13:30:36;;;;;;;2.25;1.55;;;14.60;94.30;;;;;;7597910;19;21018;-74
2023/04/12 13:33:09;;;;;;;2.45;1.40;;;14.50;94.40;;;;;;7600051;19;20769;-74
2023/04/12 13:35:41;;;;;;;3.35;1.55;;;14.60;95.20;;;;;;7594161;19;21012;-73